createdAt,value
2022-11-21T00:00:42.098Z,1000.92
2022-11-21T00:01:42.147Z,1000.87
2022-11-21T00:02:42.084Z,1000.85
2022-11-21T00:03:42.084Z,1000.83
2022-11-21T00:04:42.070Z,1000.79
2022-11-21T00:05:42.067Z,1000.79
2022-11-21T00:06:42.060Z,1000.81
2022-11-21T00:07:42.086Z,1000.78
2022-11-21T00:08:42.053Z,1000.73
2022-11-21T00:09:42.037Z,1000.72
2022-11-21T00:10:42.034Z,1000.69
2022-11-21T00:11:42.042Z,1000.68
2022-11-21T00:12:42.022Z,1000.72
2022-11-21T00:13:42.020Z,1000.71
2022-11-21T00:14:42.019Z,1000.70
2022-11-21T00:15:42.006Z,1000.64
2022-11-21T00:16:41.997Z,1000.64
2022-11-21T00:17:41.996Z,1000.64
2022-11-21T00:18:41.985Z,1000.63
2022-11-21T00:19:41.985Z,1000.62
2022-11-21T00:20:41.972Z,1000.60
2022-11-21T00:21:41.973Z,1000.61
2022-11-21T00:22:41.967Z,1000.59
2022-11-21T00:23:41.962Z,1000.60
2022-11-21T00:24:41.947Z,1000.55
2022-11-21T00:25:41.948Z,1000.56
2022-11-21T00:26:41.940Z,1000.55
2022-11-21T00:27:41.938Z,1000.55
2022-11-21T00:28:41.931Z,1000.54
2022-11-21T00:29:41.922Z,1000.57
2022-11-21T00:30:41.914Z,1000.55
2022-11-21T00:31:41.910Z,1000.48
2022-11-21T00:32:41.906Z,1000.51
2022-11-21T00:33:41.901Z,1000.50
2022-11-21T00:34:41.890Z,1000.49
2022-11-21T00:35:41.893Z,1000.46
2022-11-21T00:36:41.877Z,1000.49
2022-11-21T00:37:41.874Z,1000.45
2022-11-21T00:38:41.865Z,1000.48
2022-11-21T00:39:41.871Z,1000.48
2022-11-21T00:40:41.859Z,1000.45
2022-11-21T00:41:41.851Z,1000.42
2022-11-21T00:42:41.840Z,1000.45
2022-11-21T00:43:41.838Z,1000.40
2022-11-21T00:44:41.832Z,1000.40
2022-11-21T00:45:41.829Z,1000.36
2022-11-21T00:46:41.825Z,1000.39
2022-11-21T00:47:41.816Z,1000.42
2022-11-21T00:48:41.811Z,1000.45
2022-11-21T00:49:41.803Z,1000.42
2022-11-21T00:50:41.794Z,1000.42
2022-11-21T00:51:41.794Z,1000.40
2022-11-21T00:52:41.791Z,1000.38
2022-11-21T00:53:41.781Z,1000.38
2022-11-21T00:54:41.779Z,1000.38
2022-11-21T00:55:41.770Z,1000.39
2022-11-21T00:56:41.761Z,1000.35
2022-11-21T00:57:41.754Z,1000.33
2022-11-21T00:58:41.746Z,1000.28
2022-11-21T00:59:41.746Z,1000.28
2022-11-21T01:00:41.787Z,1000.27
2022-11-21T01:01:41.736Z,1000.26
2022-11-21T01:02:41.727Z,1000.22
2022-11-21T01:03:41.748Z,1000.17
2022-11-21T01:04:41.710Z,1000.26
2022-11-21T01:05:41.714Z,1000.25
2022-11-21T01:06:41.699Z,1000.22
2022-11-21T01:07:41.806Z,1000.21
2022-11-21T01:08:41.687Z,1000.20
2022-11-21T01:09:41.687Z,1000.19
2022-11-21T01:10:41.682Z,1000.17
2022-11-21T01:11:41.677Z,1000.15
2022-11-21T01:12:41.689Z,1000.10
2022-11-21T01:13:41.663Z,1000.11
2022-11-21T01:14:41.650Z,1000.15
2022-11-21T01:15:41.651Z,1000.13
2022-11-21T01:16:41.646Z,1000.14
2022-11-21T01:17:41.638Z,1000.09
2022-11-21T01:18:41.633Z,1000.09
2022-11-21T01:19:41.628Z,1000.07
2022-11-21T01:20:41.617Z,1000.04
2022-11-21T01:21:41.616Z,1000.04
2022-11-21T01:22:41.610Z,1000.03
2022-11-21T01:23:41.603Z,999.99
2022-11-21T01:24:41.604Z,1000.03
2022-11-21T01:25:41.594Z,1000.00
2022-11-21T01:26:41.583Z,1000.00
2022-11-21T01:27:41.582Z,1000.01
2022-11-21T01:28:41.592Z,1000.00
2022-11-21T01:29:41.567Z,1000.01
2022-11-21T01:30:41.561Z,1000.02
2022-11-21T01:31:41.555Z,1000.01
2022-11-21T01:32:41.550Z,1000.02
2022-11-21T01:33:41.552Z,1000.03
2022-11-21T01:34:41.538Z,1000.06
2022-11-21T01:35:41.533Z,1000.06
2022-11-21T01:36:41.529Z,1000.06
2022-11-21T01:37:41.520Z,1000.06
2022-11-21T01:38:41.512Z,1000.06
2022-11-21T01:39:41.509Z,1000.04
2022-11-21T01:40:41.504Z,1000.05
2022-11-21T01:41:41.496Z,1000.07
2022-11-21T01:42:41.492Z,1000.08
2022-11-21T01:43:41.490Z,1000.04
2022-11-21T01:44:41.503Z,1000.06
2022-11-21T01:45:41.473Z,1000.05
2022-11-21T01:46:41.469Z,1000.07
2022-11-21T01:47:41.465Z,1000.04
2022-11-21T01:48:41.454Z,1000.07
2022-11-21T01:49:41.461Z,1000.05
2022-11-21T01:50:41.443Z,1000.08
2022-11-21T01:51:41.438Z,1000.03
2022-11-21T01:52:41.430Z,1000.02
2022-11-21T01:53:41.433Z,999.95
2022-11-21T01:54:41.422Z,999.96
2022-11-21T01:55:41.422Z,999.95
2022-11-21T01:56:41.406Z,999.97
2022-11-21T01:57:41.404Z,999.89
2022-11-21T01:58:41.394Z,999.92
2022-11-21T01:59:41.396Z,999.91
2022-11-21T02:00:41.458Z,999.92
2022-11-21T02:01:41.382Z,999.96
2022-11-21T02:02:41.378Z,999.94
2022-11-21T02:03:41.374Z,999.95
2022-11-21T02:04:41.365Z,999.96
2022-11-21T02:05:41.360Z,999.96
2022-11-21T02:06:41.351Z,999.98
2022-11-21T02:07:41.505Z,999.98
2022-11-21T02:08:41.339Z,999.98
2022-11-21T02:09:41.333Z,999.95
2022-11-21T02:10:41.330Z,999.98
2022-11-21T02:11:41.320Z,999.93
2022-11-21T02:12:41.320Z,999.95
2022-11-21T02:13:41.314Z,999.97
2022-11-21T02:14:41.304Z,999.90
2022-11-21T02:15:41.300Z,999.89
2022-11-21T02:16:41.313Z,999.89
2022-11-21T02:17:41.289Z,999.91
2022-11-21T02:18:41.280Z,999.91
2022-11-21T02:19:41.278Z,999.91
2022-11-21T02:20:41.266Z,999.92
2022-11-21T02:21:41.269Z,999.90
2022-11-21T02:22:41.253Z,999.96
2022-11-21T02:23:41.250Z,999.93
2022-11-21T02:24:41.249Z,999.91
2022-11-21T02:25:41.240Z,999.90
2022-11-21T02:26:41.233Z,999.87
2022-11-21T02:27:41.224Z,999.85
2022-11-21T02:28:41.222Z,999.87
2022-11-21T02:29:41.221Z,999.81
2022-11-21T02:30:41.215Z,999.83
2022-11-21T02:31:41.205Z,999.78
2022-11-21T02:32:41.217Z,999.80
2022-11-21T02:33:41.198Z,999.78
2022-11-21T02:34:41.189Z,999.77
2022-11-21T02:35:41.180Z,999.74
2022-11-21T02:36:41.175Z,999.71
2022-11-21T02:37:41.165Z,999.71
2022-11-21T02:38:41.168Z,999.64
2022-11-21T02:39:41.157Z,999.69
2022-11-21T02:40:41.156Z,999.61
2022-11-21T02:41:41.146Z,999.61
2022-11-21T02:42:41.145Z,999.57
2022-11-21T02:43:41.136Z,999.63
2022-11-21T02:44:41.128Z,999.62
2022-11-21T02:45:41.117Z,999.59
2022-11-21T02:46:41.116Z,999.58
2022-11-21T02:47:41.107Z,999.53
2022-11-21T02:48:41.129Z,999.52
2022-11-21T02:49:41.094Z,999.49
2022-11-21T02:50:41.093Z,999.47
2022-11-21T02:51:41.087Z,999.46
2022-11-21T02:52:41.084Z,999.48
2022-11-21T02:53:41.072Z,999.48
2022-11-21T02:54:41.068Z,999.49
2022-11-21T02:55:41.063Z,999.49
2022-11-21T02:56:41.054Z,999.47
2022-11-21T02:57:41.051Z,999.45
2022-11-21T02:58:41.044Z,999.47
2022-11-21T02:59:41.035Z,999.45
2022-11-21T03:00:41.142Z,999.45
2022-11-21T03:01:41.026Z,999.47
2022-11-21T03:02:41.022Z,999.47
2022-11-21T03:03:41.016Z,999.42
2022-11-21T03:04:41.028Z,999.43
2022-11-21T03:05:41.002Z,999.40
2022-11-21T03:06:40.998Z,999.39
2022-11-21T03:07:41.081Z,999.38
2022-11-21T03:08:40.986Z,999.38
2022-11-21T03:09:40.980Z,999.37
2022-11-21T03:10:40.981Z,999.39
2022-11-21T03:11:40.966Z,999.38
2022-11-21T03:12:40.968Z,999.36
2022-11-21T03:13:40.960Z,999.37
2022-11-21T03:14:40.956Z,999.36
2022-11-21T03:15:40.944Z,999.36
2022-11-21T03:16:40.948Z,999.40
2022-11-21T03:17:40.943Z,999.42
2022-11-21T03:18:40.924Z,999.39
2022-11-21T03:19:40.917Z,999.40
2022-11-21T03:20:40.937Z,999.40
2022-11-21T03:21:40.908Z,999.39
2022-11-21T03:22:40.905Z,999.37
2022-11-21T03:23:40.895Z,999.36
2022-11-21T03:24:40.896Z,999.38
2022-11-21T03:25:40.882Z,999.35
2022-11-21T03:26:40.879Z,999.35
2022-11-21T03:27:40.872Z,999.35
2022-11-21T03:28:40.875Z,999.31
2022-11-21T03:29:40.859Z,999.34
2022-11-21T03:30:40.855Z,999.34
2022-11-21T03:31:40.851Z,999.33
2022-11-21T03:32:40.860Z,999.32
2022-11-21T03:33:40.843Z,999.33
2022-11-21T03:34:40.836Z,999.34
2022-11-21T03:35:40.829Z,999.34
2022-11-21T03:36:40.845Z,999.38
2022-11-21T03:37:40.814Z,999.35
2022-11-21T03:38:40.819Z,999.35
2022-11-21T03:39:40.809Z,999.37
2022-11-21T03:40:40.801Z,999.36
2022-11-21T03:41:40.791Z,999.40
2022-11-21T03:42:40.788Z,999.43
2022-11-21T03:43:40.785Z,999.42
2022-11-21T03:44:40.782Z,999.48
2022-11-21T03:45:40.765Z,999.49
2022-11-21T03:46:40.765Z,999.47
2022-11-21T03:47:40.754Z,999.47
2022-11-21T03:48:40.751Z,999.48
2022-11-21T03:49:40.747Z,999.46
2022-11-21T03:50:40.742Z,999.52
2022-11-21T03:51:40.733Z,999.50
2022-11-21T03:52:40.761Z,999.48
2022-11-21T03:53:40.721Z,999.52
2022-11-21T03:54:40.719Z,999.50
2022-11-21T03:55:40.714Z,999.52
2022-11-21T03:56:40.703Z,999.52
2022-11-21T03:57:40.699Z,999.55
2022-11-21T03:58:40.694Z,999.50
2022-11-21T03:59:40.686Z,999.52
2022-11-21T04:00:40.681Z,999.53
2022-11-21T04:01:40.859Z,999.55
2022-11-21T04:02:40.683Z,999.52
2022-11-21T04:03:40.669Z,999.57
2022-11-21T04:04:40.658Z,999.53
2022-11-21T04:05:40.647Z,999.50
2022-11-21T04:06:40.646Z,999.49
2022-11-21T04:07:40.681Z,999.51
2022-11-21T04:08:40.664Z,999.54
2022-11-21T04:09:40.626Z,999.50
2022-11-21T04:10:40.622Z,999.53
2022-11-21T04:11:40.627Z,999.53
2022-11-21T04:12:40.612Z,999.50
2022-11-21T04:13:40.602Z,999.48
2022-11-21T04:14:40.597Z,999.49
2022-11-21T04:15:40.592Z,999.49
2022-11-21T04:16:40.592Z,999.47
2022-11-21T04:17:40.579Z,999.48
2022-11-21T04:18:40.593Z,999.51
2022-11-21T04:19:40.568Z,999.49
2022-11-21T04:20:40.566Z,999.50
2022-11-21T04:21:40.553Z,999.47
2022-11-21T04:22:40.550Z,999.49
2022-11-21T04:23:40.610Z,999.49
2022-11-21T04:24:40.568Z,999.50
2022-11-21T04:25:40.538Z,999.47
2022-11-21T04:26:40.531Z,999.50
2022-11-21T04:27:40.520Z,999.48
2022-11-21T04:28:40.521Z,999.49
2022-11-21T04:29:40.508Z,999.44
2022-11-21T04:30:40.506Z,999.49
2022-11-21T04:31:40.500Z,999.46
2022-11-21T04:32:40.499Z,999.51
2022-11-21T04:33:40.484Z,999.49
2022-11-21T04:34:40.484Z,999.52
2022-11-21T04:35:40.477Z,999.54
2022-11-21T04:36:40.564Z,999.47
2022-11-21T04:37:40.471Z,999.46
2022-11-21T04:38:40.472Z,999.49
2022-11-21T04:39:40.453Z,999.44
2022-11-21T04:40:40.472Z,999.46
2022-11-21T04:41:40.439Z,999.47
2022-11-21T04:42:40.436Z,999.41
2022-11-21T04:43:40.430Z,999.44
2022-11-21T04:44:40.426Z,999.47
2022-11-21T04:45:40.416Z,999.45
2022-11-21T04:46:40.415Z,999.49
2022-11-21T04:47:40.412Z,999.46
2022-11-21T04:48:40.410Z,999.50
2022-11-21T04:49:40.393Z,999.50
2022-11-21T04:50:40.389Z,999.53
2022-11-21T04:51:40.381Z,999.50
2022-11-21T04:52:40.381Z,999.50
2022-11-21T04:53:43.145Z,999.48
2022-11-21T04:54:40.367Z,999.48
2022-11-21T04:55:40.363Z,999.49
2022-11-21T04:56:40.375Z,999.51
2022-11-21T04:57:40.357Z,999.47
2022-11-21T04:58:40.347Z,999.48
2022-11-21T04:59:40.339Z,999.50
2022-11-21T05:00:40.336Z,999.49
2022-11-21T05:01:40.356Z,999.49
2022-11-21T05:02:40.327Z,999.53
2022-11-21T05:03:40.315Z,999.55
2022-11-21T05:04:40.314Z,999.56
2022-11-21T05:05:40.302Z,999.53
2022-11-21T05:06:40.311Z,999.53
2022-11-21T05:07:40.691Z,999.56
2022-11-21T05:08:40.285Z,999.53
2022-11-21T05:09:40.281Z,999.51
2022-11-21T05:10:40.278Z,999.51
2022-11-21T05:11:40.282Z,999.53
2022-11-21T05:12:40.289Z,999.55
2022-11-21T05:13:40.256Z,999.54
2022-11-21T05:14:40.261Z,999.57
2022-11-21T05:15:40.248Z,999.58
2022-11-21T05:16:40.247Z,999.56
2022-11-21T05:17:40.232Z,999.58
2022-11-21T05:18:40.237Z,999.61
2022-11-21T05:19:40.225Z,999.58
2022-11-21T05:20:40.223Z,999.62
2022-11-21T05:21:40.217Z,999.58
2022-11-21T05:22:40.213Z,999.61
2022-11-21T05:23:40.203Z,999.62
2022-11-21T05:24:40.197Z,999.59
2022-11-21T05:25:40.200Z,999.60
2022-11-21T05:26:40.187Z,999.64
2022-11-21T05:27:40.182Z,999.63
2022-11-21T05:28:40.197Z,999.60
2022-11-21T05:29:40.167Z,999.64
2022-11-21T05:30:40.164Z,999.58
2022-11-21T05:31:40.154Z,999.61
2022-11-21T05:32:40.155Z,999.57
2022-11-21T05:33:40.149Z,999.64
2022-11-21T05:34:40.143Z,999.58
2022-11-21T05:35:43.153Z,999.58
2022-11-21T05:36:40.135Z,999.58
2022-11-21T05:37:40.123Z,999.61
2022-11-21T05:38:40.118Z,999.56
2022-11-21T05:39:40.111Z,999.59
2022-11-21T05:40:40.110Z,999.58
2022-11-21T05:41:40.095Z,999.61
2022-11-21T05:42:40.093Z,999.59
2022-11-21T05:43:40.088Z,999.59
2022-11-21T05:44:40.124Z,999.58
2022-11-21T05:45:40.079Z,999.53
2022-11-21T05:46:40.076Z,999.58
2022-11-21T05:47:40.061Z,999.55
2022-11-21T05:48:40.060Z,999.56
2022-11-21T05:49:40.055Z,999.52
2022-11-21T05:50:40.049Z,999.54
2022-11-21T05:51:40.041Z,999.53
2022-11-21T05:52:40.045Z,999.53
2022-11-21T05:53:40.030Z,999.46
2022-11-21T05:54:43.629Z,999.43
2022-11-21T05:55:40.025Z,999.41
2022-11-21T05:56:40.025Z,999.42
2022-11-21T05:57:40.012Z,999.41
2022-11-21T05:58:40.007Z,999.41
2022-11-21T05:59:40.001Z,999.39
2022-11-21T06:00:40.016Z,999.39
2022-11-21T06:01:39.997Z,999.40
2022-11-21T06:02:40.044Z,999.40
2022-11-21T06:03:39.977Z,999.42
2022-11-21T06:04:39.979Z,999.43
2022-11-21T06:05:39.962Z,999.40
2022-11-21T06:06:39.961Z,999.42
2022-11-21T06:07:40.032Z,999.42
2022-11-21T06:08:39.958Z,999.45
2022-11-21T06:09:39.941Z,999.48
2022-11-21T06:10:39.940Z,999.48
2022-11-21T06:11:39.932Z,999.49
2022-11-21T06:12:39.930Z,999.48
2022-11-21T06:13:39.922Z,999.46
2022-11-21T06:14:39.919Z,999.51
2022-11-21T06:15:39.915Z,999.51
2022-11-21T06:16:39.930Z,999.56
2022-11-21T06:17:39.899Z,999.55
2022-11-21T06:18:39.895Z,999.56
2022-11-21T06:19:39.885Z,999.57
2022-11-21T06:20:39.894Z,999.56
2022-11-21T06:21:39.878Z,999.52
2022-11-21T06:22:39.876Z,999.51
2022-11-21T06:23:39.868Z,999.54
2022-11-21T06:24:39.868Z,999.56
2022-11-21T06:25:39.856Z,999.58
2022-11-21T06:26:39.853Z,999.60
2022-11-21T06:27:39.846Z,999.58
2022-11-21T06:28:39.844Z,999.61
2022-11-21T06:29:39.837Z,999.57
2022-11-21T06:30:39.828Z,999.56
2022-11-21T06:31:39.823Z,999.56
2022-11-21T06:32:39.870Z,999.54
2022-11-21T06:33:39.818Z,999.58
2022-11-21T06:34:39.809Z,999.54
2022-11-21T06:35:39.802Z,999.54
2022-11-21T06:36:39.798Z,999.56
2022-11-21T06:37:39.790Z,999.55
2022-11-21T06:38:39.782Z,999.57
2022-11-21T06:39:39.783Z,999.61
2022-11-21T06:40:39.771Z,999.60
2022-11-21T06:41:39.769Z,999.64
2022-11-21T06:42:39.778Z,999.61
2022-11-21T06:43:39.764Z,999.64
2022-11-21T06:44:39.752Z,999.59
2022-11-21T06:45:39.751Z,999.66
2022-11-21T06:46:39.742Z,999.63
2022-11-21T06:47:39.738Z,999.60
2022-11-21T06:48:39.752Z,999.62
2022-11-21T06:49:39.732Z,999.60
2022-11-21T06:50:39.724Z,999.66
2022-11-21T06:51:39.724Z,999.63
2022-11-21T06:52:39.709Z,999.67
2022-11-21T06:53:39.703Z,999.68
2022-11-21T06:54:39.701Z,999.69
2022-11-21T06:55:39.700Z,999.71
2022-11-21T06:56:39.686Z,999.76
2022-11-21T06:57:39.685Z,999.71
2022-11-21T06:58:39.678Z,999.78
2022-11-21T06:59:39.676Z,999.74
2022-11-21T07:00:39.668Z,999.75
2022-11-21T07:01:39.747Z,999.69
2022-11-21T07:02:39.654Z,999.72
2022-11-21T07:03:39.653Z,999.74
2022-11-21T07:04:39.668Z,999.76
2022-11-21T07:05:39.641Z,999.76
2022-11-21T07:06:39.632Z,999.80
2022-11-21T07:07:39.689Z,999.76
2022-11-21T07:08:39.625Z,999.83
2022-11-21T07:09:39.631Z,999.81
2022-11-21T07:10:42.574Z,999.84
2022-11-21T07:11:39.613Z,999.81
2022-11-21T07:12:39.601Z,999.87
2022-11-21T07:13:39.604Z,999.88
2022-11-21T07:14:39.592Z,999.87
2022-11-21T07:15:39.590Z,999.90
2022-11-21T07:16:39.586Z,999.90
2022-11-21T07:17:39.582Z,999.92
2022-11-21T07:18:39.572Z,999.95
2022-11-21T07:19:41.029Z,999.97
2022-11-21T07:20:39.582Z,1000.03
2022-11-21T07:21:39.560Z,999.98
2022-11-21T07:22:39.548Z,1000.01
2022-11-21T07:23:39.548Z,1000.02
2022-11-21T07:24:39.540Z,1000.07
2022-11-21T07:25:39.538Z,1000.05
2022-11-21T07:26:39.537Z,1000.07
2022-11-21T07:27:39.529Z,1000.08
2022-11-21T07:28:39.523Z,1000.14
2022-11-21T07:29:39.526Z,1000.10
2022-11-21T07:30:39.507Z,1000.12
2022-11-21T07:31:39.555Z,1000.14
2022-11-21T07:32:39.504Z,1000.16
2022-11-21T07:33:39.503Z,1000.14
2022-11-21T07:34:39.489Z,1000.13
2022-11-21T07:35:39.486Z,1000.16
2022-11-21T07:36:39.502Z,1000.14
2022-11-21T07:37:39.483Z,1000.15
2022-11-21T07:38:39.472Z,1000.17
2022-11-21T07:39:39.469Z,1000.16
2022-11-21T07:40:39.460Z,1000.19
2022-11-21T07:41:39.457Z,1000.19
2022-11-21T07:42:39.456Z,1000.18
2022-11-21T07:43:39.444Z,1000.26
2022-11-21T07:44:39.434Z,1000.20
2022-11-21T07:45:39.434Z,1000.18
2022-11-21T07:46:39.428Z,1000.19
2022-11-21T07:47:39.426Z,1000.24
2022-11-21T07:48:39.418Z,1000.21
2022-11-21T07:49:39.418Z,1000.21
2022-11-21T07:50:39.408Z,1000.19
2022-11-21T07:51:39.404Z,1000.19
2022-11-21T07:52:39.419Z,1000.19
2022-11-21T07:53:39.395Z,1000.18
2022-11-21T07:54:39.389Z,1000.22
2022-11-21T07:55:40.965Z,1000.24
2022-11-21T07:56:39.382Z,1000.21
2022-11-21T07:57:39.375Z,1000.20
2022-11-21T07:58:39.366Z,1000.25
2022-11-21T07:59:39.360Z,1000.27
2022-11-21T08:00:39.358Z,1000.27
2022-11-21T08:01:45.020Z,1000.28
2022-11-21T08:02:39.345Z,1000.29
2022-11-21T08:03:39.343Z,1000.29
2022-11-21T08:04:39.335Z,1000.34
2022-11-21T08:05:39.384Z,1000.33
2022-11-21T08:06:39.322Z,1000.31
2022-11-21T08:07:39.377Z,1000.35
2022-11-21T08:08:39.340Z,1000.32
2022-11-21T08:09:39.933Z,1000.33
2022-11-21T08:10:39.301Z,1000.38
2022-11-21T08:11:39.299Z,1000.38
2022-11-21T08:12:39.293Z,1000.37
2022-11-21T08:13:39.283Z,1000.39
2022-11-21T08:14:39.276Z,1000.42
2022-11-21T08:15:39.280Z,1000.43
2022-11-21T08:16:39.271Z,1000.47
2022-11-21T08:17:39.270Z,1000.48
2022-11-21T08:18:39.260Z,1000.50
2022-11-21T08:19:39.261Z,1000.52
2022-11-21T08:20:39.261Z,1000.51
2022-11-21T08:21:39.252Z,1000.53
2022-11-21T08:22:39.237Z,1000.53
2022-11-21T08:23:39.238Z,1000.52
2022-11-21T08:24:39.247Z,1000.48
2022-11-21T08:25:39.225Z,1000.49
2022-11-21T08:26:39.220Z,1000.45
2022-11-21T08:27:39.219Z,1000.43
2022-11-21T08:28:39.207Z,1000.42
2022-11-21T08:29:39.205Z,1000.43
2022-11-21T08:30:39.203Z,1000.43
2022-11-21T08:31:39.248Z,1000.51
2022-11-21T08:32:39.188Z,1000.55
2022-11-21T08:33:39.185Z,1000.52
2022-11-21T08:34:39.181Z,1000.58
2022-11-21T08:35:39.183Z,1000.58
2022-11-21T08:36:39.169Z,1000.54
2022-11-21T08:37:39.168Z,1000.60
2022-11-21T08:38:39.160Z,1000.63
2022-11-21T08:39:39.158Z,1000.62
2022-11-21T08:40:39.184Z,1000.60
2022-11-21T08:41:39.149Z,1000.65
2022-11-21T08:42:39.140Z,1000.74
2022-11-21T08:43:39.142Z,1000.74
2022-11-21T08:44:39.132Z,1000.73
2022-11-21T08:45:39.132Z,1000.73
2022-11-21T08:46:39.121Z,1000.71
2022-11-21T08:47:39.123Z,1000.76
2022-11-21T08:48:39.113Z,1000.78
2022-11-21T08:49:39.117Z,1000.78
2022-11-21T08:50:39.116Z,1000.72
2022-11-21T08:51:39.107Z,1000.76
2022-11-21T08:52:39.099Z,1000.78
2022-11-21T08:53:39.096Z,1000.77
2022-11-21T08:54:39.088Z,1000.79
2022-11-21T08:55:39.082Z,1000.81
2022-11-21T08:56:39.098Z,1000.80
2022-11-21T08:57:39.076Z,1000.79
2022-11-21T08:58:39.066Z,1000.83
2022-11-21T08:59:39.065Z,1000.79
2022-11-21T09:00:39.064Z,1000.80
2022-11-21T09:01:39.109Z,1000.81
2022-11-21T09:02:39.049Z,1000.90
2022-11-21T09:03:39.054Z,1000.86
2022-11-21T09:04:39.061Z,1000.84
2022-11-21T09:05:39.047Z,1000.88
2022-11-21T09:06:39.039Z,1000.89
2022-11-21T09:07:39.100Z,1000.90
2022-11-21T09:08:39.023Z,1000.97
2022-11-21T09:09:39.021Z,1000.95
2022-11-21T09:10:39.016Z,1000.99
2022-11-21T09:11:39.014Z,1000.97
2022-11-21T09:12:39.027Z,1000.94
2022-11-21T09:13:39.010Z,1000.92
2022-11-21T09:14:39.000Z,1000.96
2022-11-21T09:15:38.994Z,1000.98
2022-11-21T09:16:38.988Z,1000.90
2022-11-21T09:17:38.993Z,1000.97
2022-11-21T09:18:38.983Z,1001.00
2022-11-21T09:19:38.977Z,1000.93
2022-11-21T09:20:39.047Z,1000.96
2022-11-21T09:21:38.968Z,1001.01
2022-11-21T09:22:38.961Z,1001.00
2022-11-21T09:23:38.959Z,1001.00
2022-11-21T09:24:38.955Z,1001.05
2022-11-21T09:25:38.956Z,1001.08
2022-11-21T09:26:38.949Z,1001.08
2022-11-21T09:27:38.939Z,1001.06
2022-11-21T09:28:38.958Z,1001.09
2022-11-21T09:29:38.929Z,1001.07
2022-11-21T09:30:38.930Z,1001.04
2022-11-21T09:31:38.923Z,1001.05
2022-11-21T09:32:38.918Z,1001.09
2022-11-21T09:33:38.919Z,1001.08
2022-11-21T09:34:38.908Z,1001.14
2022-11-21T09:35:38.907Z,1001.14
2022-11-21T09:36:38.953Z,1001.10
2022-11-21T09:37:38.904Z,1001.17
2022-11-21T09:38:38.893Z,1001.19
2022-11-21T09:39:38.890Z,1001.15
2022-11-21T09:40:38.882Z,1001.13
2022-11-21T09:41:38.878Z,1001.13
2022-11-21T09:42:38.874Z,1001.13
2022-11-21T09:43:38.869Z,1001.09
2022-11-21T09:44:38.886Z,1001.11
2022-11-21T09:45:38.877Z,1001.13
2022-11-21T09:46:38.865Z,1001.09
2022-11-21T09:47:38.858Z,1001.07
2022-11-21T09:48:38.850Z,1001.06
2022-11-21T09:49:38.842Z,1001.09
2022-11-21T09:50:38.840Z,1001.09
2022-11-21T09:51:38.838Z,1001.08
2022-11-21T09:52:38.834Z,1001.06
2022-11-21T09:53:38.826Z,1001.08
2022-11-21T09:54:38.820Z,1001.10
2022-11-21T09:55:38.822Z,1001.11
2022-11-21T09:56:38.814Z,1001.16
2022-11-21T09:57:38.809Z,1001.18
2022-11-21T09:58:38.802Z,1001.12
2022-11-21T09:59:38.811Z,1001.12
2022-11-21T10:00:38.866Z,1001.11
2022-11-21T10:01:38.788Z,1001.11
2022-11-21T10:02:38.783Z,1001.09
2022-11-21T10:03:38.805Z,1001.09
2022-11-21T10:04:38.780Z,1001.07
2022-11-21T10:05:38.778Z,1001.09
2022-11-21T10:06:38.770Z,1001.11
2022-11-21T10:07:38.822Z,1001.13
2022-11-21T10:08:38.758Z,1001.10
2022-11-21T10:09:38.762Z,1001.11
2022-11-21T10:10:38.749Z,1001.11
2022-11-21T10:11:38.755Z,1001.08
2022-11-21T10:12:38.762Z,1001.11
2022-11-21T10:13:38.739Z,1001.08
2022-11-21T10:14:38.735Z,1001.14
2022-11-21T10:15:38.732Z,1001.11
2022-11-21T10:16:42.042Z,1001.09
2022-11-21T10:17:38.743Z,1001.14
2022-11-21T10:18:38.720Z,1001.14
2022-11-21T10:19:38.710Z,1001.14
2022-11-21T10:20:38.701Z,1001.20
2022-11-21T10:21:38.754Z,1001.16
2022-11-21T10:22:38.697Z,1001.22
2022-11-21T10:23:39.027Z,1001.25
2022-11-21T10:24:38.690Z,1001.27
2022-11-21T10:25:38.703Z,1001.25
2022-11-21T10:26:38.684Z,1001.28
2022-11-21T10:27:38.682Z,1001.27
2022-11-21T10:28:38.679Z,1001.27
2022-11-21T10:29:38.671Z,1001.28
2022-11-21T10:30:38.685Z,1001.28
2022-11-21T10:31:38.660Z,1001.28
2022-11-21T10:32:38.688Z,1001.26
2022-11-21T10:33:38.653Z,1001.26
2022-11-21T10:34:38.646Z,1001.29
2022-11-21T10:35:38.651Z,1001.28
2022-11-21T10:36:38.682Z,1001.28
2022-11-21T10:37:38.644Z,1001.30
2022-11-21T10:38:38.628Z,1001.29
2022-11-21T10:39:38.634Z,1001.30
2022-11-21T10:40:38.630Z,1001.30
2022-11-21T10:41:38.618Z,1001.34
2022-11-21T10:42:38.613Z,1001.33
2022-11-21T10:43:38.611Z,1001.33
2022-11-21T10:44:38.623Z,1001.37
2022-11-21T10:45:38.607Z,1001.40
2022-11-21T10:46:38.598Z,1001.42
2022-11-21T10:47:38.599Z,1001.47
2022-11-21T10:48:38.618Z,1001.43
2022-11-21T10:49:38.585Z,1001.46
2022-11-21T10:50:38.577Z,1001.51
2022-11-21T10:51:38.579Z,1001.49
2022-11-21T10:52:38.572Z,1001.49
2022-11-21T10:53:38.566Z,1001.47
2022-11-21T10:54:38.560Z,1001.48
2022-11-21T10:55:38.553Z,1001.49
2022-11-21T10:56:38.560Z,1001.51
2022-11-21T10:57:38.556Z,1001.51
2022-11-21T10:58:38.546Z,1001.53
2022-11-21T10:59:38.542Z,1001.55
2022-11-21T11:00:38.610Z,1001.55
2022-11-21T11:01:38.534Z,1001.54
2022-11-21T11:02:38.547Z,1001.52
2022-11-21T11:03:38.521Z,1001.51
2022-11-21T11:04:47.453Z,1001.52
2022-11-21T11:05:38.515Z,1001.54
2022-11-21T11:06:38.512Z,1001.53
2022-11-21T11:07:38.609Z,1001.49
2022-11-21T11:08:38.508Z,1001.49
2022-11-21T11:09:38.495Z,1001.53
2022-11-21T11:10:38.503Z,1001.50
2022-11-21T11:11:38.494Z,1001.52
2022-11-21T11:12:38.489Z,1001.55
2022-11-21T11:13:45.866Z,1001.53
2022-11-21T11:14:38.480Z,1001.54
2022-11-21T11:15:38.469Z,1001.57
2022-11-21T11:16:41.539Z,1001.58
2022-11-21T11:17:38.462Z,1001.57
2022-11-21T11:18:38.479Z,1001.61
2022-11-21T11:19:40.388Z,1001.63
2022-11-21T11:20:38.477Z,1001.64
2022-11-21T11:21:38.444Z,1001.67
2022-11-21T11:22:38.455Z,1001.66
2022-11-21T11:23:38.438Z,1001.71
2022-11-21T11:24:38.432Z,1001.73
2022-11-21T11:25:38.446Z,1001.75
2022-11-21T11:26:38.424Z,1001.72
2022-11-21T11:27:38.418Z,1001.72
2022-11-21T11:28:38.416Z,1001.73
2022-11-21T11:29:38.409Z,1001.67
2022-11-21T11:30:38.406Z,1001.68
2022-11-21T11:31:38.405Z,1001.69
2022-11-21T11:32:38.397Z,1001.73
2022-11-21T11:33:38.397Z,1001.70
2022-11-21T11:34:38.399Z,1001.74
2022-11-21T11:35:38.378Z,1001.73
2022-11-21T11:36:38.402Z,1001.67
2022-11-21T11:37:40.817Z,1001.72
2022-11-21T11:38:38.388Z,1001.74
2022-11-21T11:39:38.365Z,1001.68
2022-11-21T11:40:38.371Z,1001.68
2022-11-21T11:41:38.356Z,1001.68
2022-11-21T11:42:38.356Z,1001.69
2022-11-21T11:43:38.350Z,1001.67
2022-11-21T11:44:38.342Z,1001.69
2022-11-21T11:45:38.340Z,1001.69
2022-11-21T11:46:38.338Z,1001.70
2022-11-21T11:47:38.329Z,1001.70
2022-11-21T11:49:03.287Z,1001.73
2022-11-21T11:49:38.703Z,1001.75
2022-11-21T11:50:38.321Z,1001.72
2022-11-21T11:51:38.318Z,1001.69
2022-11-21T11:52:38.333Z,1001.72
2022-11-21T11:53:38.301Z,1001.77
2022-11-21T11:54:38.300Z,1001.75
2022-11-21T11:55:38.294Z,1001.74
2022-11-21T11:56:38.292Z,1001.72
2022-11-21T11:57:38.289Z,1001.67
2022-11-21T11:58:38.285Z,1001.67
2022-11-21T11:59:38.280Z,1001.64
2022-11-21T12:00:38.277Z,1001.66
2022-11-21T12:01:38.267Z,1001.67
2022-11-21T12:02:38.340Z,1001.64
2022-11-21T12:03:38.264Z,1001.68
2022-11-21T12:04:38.258Z,1001.64
2022-11-21T12:05:38.249Z,1001.64
2022-11-21T12:07:26.104Z,1001.60
2022-11-21T12:08:42.847Z,1001.56
2022-11-21T12:09:38.298Z,1001.61
2022-11-21T12:10:38.228Z,1001.60
2022-11-21T12:11:38.224Z,1001.65
2022-11-21T12:12:38.230Z,1001.63
2022-11-21T12:13:38.217Z,1001.70
2022-11-21T12:14:38.211Z,1001.68
2022-11-21T12:15:38.211Z,1001.66
2022-11-21T12:16:38.210Z,1001.67